College Park, Georgia
Current Conditions -  °F | °C
As of 2:52 AM on Thursday 29 Jan 2015 (Local Time) from KATL Reporting Station
Broken Clouds Broken Clouds  
Wind Chill: 39°   Ceiling: 25000
Heat Index: 39°   Visibility: 10mi
Dew Point: 27°   Wind: 0mph
Humidity: 62%   Direction: NA
Pressure: 30.29"   Gusts: NA
Location:  33.64°N, 84.47°W
Report Text: KATL 290752Z 00000KT 10SM FEW200 BKN250 04/M03 A3029 RMK AO2 SLP259 T00391028
Loading
Personal Weather Stations






























Interactive Weather Map New forecast layout! Learn more

10-Day Weather Forecast

Advertisements
Track Severe Weather on mobile